Time;durP1;ratioP1;P1;durP2;ratioP2;P2;SDS_P1;SDS_P2;PMS_P1;PMS_P2;Temp;Humidity;BMP_temperature;BMP_pressure;BME280_temperature;BME280_humidity;BME280_pressure;Samples;Min_cycle;Max_cycle;Signal;HPM_P1;HPM_P2
2024/02/01 00:01:15;;;;;;;12.82;7.95;;;1.50;99.90;;;;;;5017783;28;20034;-33
2024/02/01 00:03:42;;;;;;;17.63;8.95;;;1.50;99.90;;;;;;5028508;28;20837;-36
2024/02/01 00:06:07;;;;;;;15.63;9.48;;;1.60;99.90;;;;;;5026276;28;20040;-34
2024/02/01 00:08:33;;;;;;;17.48;9.95;;;1.60;99.90;;;;;;5024261;28;20470;-35
2024/02/01 00:10:58;;;;;;;13.85;8.60;;;1.70;99.90;;;;;;5022811;28;20030;-40
2024/02/01 00:13:24;;;;;;;15.45;9.15;;;1.70;99.90;;;;;;5024721;28;20129;-33
2024/02/01 00:15:50;;;;;;;13.55;9.23;;;1.70;99.90;;;;;;5029544;28;20045;-35
2024/02/01 00:18:15;;;;;;;15.85;9.05;;;1.80;99.90;;;;;;5025905;28;20140;-36
2024/02/01 00:20:41;;;;;;;14.00;9.50;;;1.90;99.90;;;;;;5027744;28;20024;-35
2024/02/01 00:23:06;;;;;;;14.82;8.77;;;1.90;99.90;;;;;;5023525;28;20071;-37
2024/02/01 00:25:32;;;;;;;15.18;8.93;;;2.00;99.90;;;;;;5030447;28;20029;-33
2024/02/01 00:27:59;;;;;;;14.93;8.35;;;2.00;99.90;;;;;;5021346;28;20463;-34
2024/02/01 00:30:24;;;;;;;14.57;9.57;;;2.10;99.90;;;;;;5029343;28;20033;-37
2024/02/01 00:32:50;;;;;;;17.40;9.02;;;2.20;99.90;;;;;;5023121;28;20433;-34
2024/02/01 00:35:16;;;;;;;18.65;10.82;;;2.20;99.90;;;;;;5021338;28;20038;-35
2024/02/01 00:37:41;;;;;;;16.17;8.27;;;2.20;99.90;;;;;;5019745;28;20486;-38
2024/02/01 00:40:07;;;;;;;15.25;8.82;;;2.20;99.90;;;;;;5020208;28;20064;-35
2024/02/01 00:42:33;;;;;;;18.35;9.73;;;2.20;99.90;;;;;;5024091;28;20029;-34
2024/02/01 00:44:59;;;;;;;15.25;9.50;;;2.30;99.90;;;;;;5024279;28;20037;-35
2024/02/01 00:47:24;;;;;;;20.10;9.55;;;2.40;99.90;;;;;;5024793;28;20027;-34
2024/02/01 00:49:50;;;;;;;19.25;9.50;;;2.50;99.90;;;;;;5024266;28;20025;-36
2024/02/01 00:52:15;;;;;;;14.35;9.13;;;2.60;99.90;;;;;;5025534;28;20034;-34
2024/02/01 00:54:41;;;;;;;19.40;9.65;;;2.70;99.90;;;;;;5024483;28;20742;-38
2024/02/01 00:57:06;;;;;;;17.50;9.88;;;2.80;99.90;;;;;;5017406;28;20053;-35
2024/02/01 00:59:32;;;;;;;16.15;9.82;;;2.80;99.90;;;;;;5024605;28;20387;-34
2024/02/01 01:01:58;;;;;;;13.80;8.82;;;2.80;99.90;;;;;;5008858;28;20036;-35
2024/02/01 01:04:23;;;;;;;16.05;9.23;;;2.70;99.90;;;;;;5006363;28;20022;-34
2024/02/01 01:06:49;;;;;;;21.30;10.73;;;2.80;99.90;;;;;;5001968;28;20034;-33
2024/02/01 01:09:14;;;;;;;18.90;8.98;;;2.80;99.90;;;;;;4997717;28;20056;-34
2024/02/01 01:11:40;;;;;;;18.20;10.75;;;2.90;99.90;;;;;;5006238;28;20064;-35
2024/02/01 01:14:05;;;;;;;14.98;8.70;;;3.00;99.90;;;;;;5000374;28;20049;-37
2024/02/01 01:16:31;;;;;;;18.25;9.77;;;3.10;99.90;;;;;;5005775;28;21282;-35
2024/02/01 01:18:57;;;;;;;17.85;9.30;;;3.10;99.90;;;;;;5003964;28;20030;-36
2024/02/01 01:21:22;;;;;;;13.68;9.15;;;3.20;99.90;;;;;;5005352;28;20092;-40
2024/02/01 01:23:48;;;;;;;18.25;9.60;;;3.30;99.90;;;;;;5001317;28;20034;-41
2024/02/01 01:26:19;;;;;;;15.82;9.07;;;3.40;99.90;;;;;;5003824;28;20033;-40
2024/02/01 01:28:45;;;;;;;11.82;9.23;;;3.40;99.90;;;;;;5000435;28;20038;-40
2024/02/01 01:31:10;;;;;;;15.98;9.70;;;3.50;99.90;;;;;;5009776;28;20420;-43
2024/02/01 01:33:36;;;;;;;15.75;9.85;;;3.60;99.90;;;;;;5029553;28;20120;-42
2024/02/01 01:36:01;;;;;;;18.40;9.57;;;3.70;99.90;;;;;;5027661;28;20033;-41
2024/02/01 01:38:27;;;;;;;14.70;9.40;;;3.80;99.90;;;;;;5028396;28;20550;-43
2024/02/01 01:40:52;;;;;;;20.05;10.88;;;3.90;99.90;;;;;;5024914;28;20036;-41
2024/02/01 01:43:18;;;;;;;18.10;10.23;;;4.00;99.90;;;;;;5027443;28;20087;-36
2024/02/01 01:45:43;;;;;;;9.52;6.63;;;4.00;99.90;;;;;;5030859;28;20502;-40
2024/02/01 01:48:09;;;;;;;13.93;9.18;;;4.20;99.90;;;;;;5029226;28;20051;-41
2024/02/01 01:50:35;;;;;;;17.63;9.93;;;4.20;99.90;;;;;;5028627;28;20153;-39
2024/02/01 01:53:01;;;;;;;11.82;6.82;;;4.10;99.90;;;;;;5033243;28;20112;-41
2024/02/01 01:55:28;;;;;;;18.10;10.13;;;4.20;99.90;;;;;;5027389;28;20044;-39
2024/02/01 01:57:54;;;;;;;18.05;9.20;;;4.30;99.90;;;;;;5030867;28;20033;-42
2024/02/01 02:00:21;;;;;;;15.75;9.30;;;4.40;99.90;;;;;;5029595;28;20407;-41
2024/02/01 02:02:47;;;;;;;16.40;8.80;;;4.40;99.90;;;;;;5014896;28;20488;-40
2024/02/01 02:05:12;;;;;;;21.75;9.85;;;4.40;99.90;;;;;;5009456;28;20044;-40
2024/02/01 02:07:39;;;;;;;12.05;8.48;;;4.30;99.90;;;;;;5007606;28;20103;-41
2024/02/01 02:10:05;;;;;;;18.77;8.68;;;4.40;99.90;;;;;;5010132;28;20058;-42
2024/02/01 02:12:31;;;;;;;15.63;8.85;;;4.30;99.90;;;;;;5008880;28;20414;-42
2024/02/01 02:14:58;;;;;;;10.65;7.40;;;4.40;99.90;;;;;;5009994;28;20038;-41
2024/02/01 02:17:25;;;;;;;13.10;5.10;;;4.40;99.90;;;;;;5008328;28;20034;-40
2024/02/01 02:19:51;;;;;;;8.63;5.82;;;4.60;99.90;;;;;;5008289;28;20037;-42
2024/02/01 02:22:17;;;;;;;13.15;6.68;;;4.70;99.90;;;;;;5009549;28;20033;-41
2024/02/01 02:24:43;;;;;;;14.52;7.55;;;4.70;99.90;;;;;;5014416;28;20065;-40
2024/02/01 02:27:08;;;;;;;13.07;8.38;;;4.80;99.90;;;;;;5010793;28;20313;-42
2024/02/01 02:29:35;;;;;;;10.13;5.95;;;4.80;99.90;;;;;;5008603;28;20030;-40
2024/02/01 02:32:01;;;;;;;17.98;9.05;;;4.90;99.90;;;;;;5020082;28;20509;-41
2024/02/01 02:34:27;;;;;;;14.52;8.27;;;4.80;99.90;;;;;;5024637;28;20045;-41
2024/02/01 02:36:52;;;;;;;15.27;8.52;;;4.80;99.90;;;;;;5025746;28;20037;-42
2024/02/01 02:39:18;;;;;;;10.95;7.20;;;4.80;99.90;;;;;;5025009;28;20029;-41
2024/02/01 02:41:43;;;;;;;13.68;7.35;;;4.90;99.90;;;;;;5026182;28;20108;-39
2024/02/01 02:44:11;;;;;;;11.90;8.15;;;4.90;99.90;;;;;;5031728;28;20032;-40
2024/02/01 02:46:37;;;;;;;8.80;4.80;;;4.90;99.90;;;;;;5023982;28;20251;-42
2024/02/01 02:49:03;;;;;;;11.23;7.32;;;4.80;99.90;;;;;;5029237;28;20029;-42
2024/02/01 02:51:29;;;;;;;12.93;8.68;;;4.80;99.90;;;;;;5031473;28;20052;-38
2024/02/01 02:53:54;;;;;;;14.00;7.30;;;4.80;99.90;;;;;;5031709;28;20035;-35
2024/02/01 02:56:21;;;;;;;11.95;8.02;;;4.90;99.90;;;;;;5024275;28;20029;-43
2024/02/01 02:58:47;;;;;;;9.18;6.20;;;5.00;99.90;;;;;;5026131;28;20041;-40
2024/02/01 03:01:12;;;;;;;15.30;7.88;;;5.10;99.90;;;;;;5024829;28;20617;-41
2024/02/01 03:03:41;;;;;;;12.55;6.85;;;5.10;99.90;;;;;;5021256;28;20029;-41
2024/02/01 03:06:10;;;;;;;;;;;5.20;99.90;;;;;;5030369;28;20033;-41
2024/02/01 03:08:39;;;;;;;14.43;6.45;;;5.20;99.90;;;;;;5018843;28;20367;-37
2024/02/01 03:11:10;;;;;;;10.70;6.10;;;5.30;99.90;;;;;;5026769;28;20032;-36
2024/02/01 03:13:37;;;;;;;11.00;6.05;;;5.30;99.90;;;;;;5026983;28;20364;-39
2024/02/01 03:16:04;;;;;;;6.20;4.85;;;5.30;99.90;;;;;;5034261;28;20502;-40
2024/02/01 03:18:30;;;;;;;14.45;7.00;;;5.30;99.90;;;;;;5025371;28;20026;-41
2024/02/01 03:20:56;;;;;;;11.73;7.03;;;5.30;99.90;;;;;;5020804;28;20030;-39
2024/02/01 03:23:21;;;;;;;11.38;7.55;;;5.30;99.90;;;;;;5028261;28;20033;-42
2024/02/01 03:25:50;;;;;;;16.23;7.13;;;5.30;99.90;;;;;;5023967;28;20021;-40
2024/02/01 03:28:16;;;;;;;12.48;7.00;;;5.30;99.90;;;;;;5022267;28;20040;-43
2024/02/01 03:30:46;;;;;;;11.95;7.25;;;5.30;99.90;;;;;;5024859;28;20399;-42
2024/02/01 03:33:13;;;;;;;13.95;7.47;;;5.30;99.90;;;;;;5027559;28;20175;-37
2024/02/01 03:35:39;;;;;;;13.50;7.30;;;5.30;99.90;;;;;;5025027;28;20499;-40
2024/02/01 03:38:04;;;;;;;13.32;7.15;;;5.30;99.90;;;;;;5022484;28;20036;-43
2024/02/01 03:40:31;;;;;;;9.70;6.07;;;5.20;99.90;;;;;;5027524;28;20022;-42
2024/02/01 03:42:57;;;;;;;16.15;7.10;;;5.20;99.90;;;;;;5022681;28;20026;-36
2024/02/01 03:45:22;;;;;;;15.05;6.53;;;5.30;99.90;;;;;;5025376;28;20692;-34
2024/02/01 03:47:48;;;;;;;9.77;5.45;;;5.30;99.90;;;;;;5027266;28;20114;-34
2024/02/01 03:50:14;;;;;;;10.65;6.20;;;5.30;99.90;;;;;;5026175;28;20666;-34
2024/02/01 03:52:43;;;;;;;12.98;6.95;;;5.30;99.90;;;;;;5024695;28;20179;-40
2024/02/01 03:55:16;;;;;;;9.32;6.20;;;5.30;99.90;;;;;;5022433;28;20124;-34
2024/02/01 03:57:48;;;;;;;11.55;4.47;;;5.30;99.90;;;;;;5031674;28;20036;-37
2024/02/01 04:00:24;;;;;;;10.38;5.18;;;5.40;99.90;;;;;;5021841;28;20025;-35
2024/02/01 04:03:03;;;;;;;5.15;4.13;;;5.40;99.90;;;;;;5023467;28;20037;-34
2024/02/01 04:05:36;;;;;;;7.07;3.85;;;5.50;99.90;;;;;;5029693;28;20567;-34
2024/02/01 04:08:08;;;;;;;7.30;4.47;;;5.50;99.90;;;;;;5022220;28;20028;-36
2024/02/01 04:10:35;;;;;;;12.02;6.13;;;5.60;99.90;;;;;;5032601;28;20514;-34
2024/02/01 04:13:07;;;;;;;7.65;4.70;;;5.70;99.90;;;;;;5027855;28;20025;-36
2024/02/01 04:15:34;;;;;;;4.80;4.35;;;5.90;99.90;;;;;;5029241;28;20116;-34
2024/02/01 04:18:04;;;;;;;8.02;4.47;;;6.00;99.90;;;;;;5028764;28;20038;-33
2024/02/01 04:20:30;;;;;;;6.70;5.07;;;6.10;99.90;;;;;;5028444;28;20060;-35
2024/02/01 04:22:56;;;;;;;5.93;4.43;;;6.30;99.90;;;;;;5026596;28;20025;-35
2024/02/01 04:25:25;;;;;;;7.22;5.13;;;6.50;99.90;;;;;;5031330;28;20026;-33
2024/02/01 04:27:52;;;;;;;7.45;5.65;;;6.50;99.90;;;;;;5024695;28;20029;-37
2024/02/01 04:30:18;;;;;;;9.32;5.90;;;6.60;99.90;;;;;;5029335;28;20033;-36
2024/02/01 04:32:45;;;;;;;7.82;4.32;;;6.60;99.90;;;;;;5026042;28;20383;-35
2024/02/01 04:35:14;;;;;;;6.70;4.53;;;6.60;99.90;;;;;;5022069;28;20053;-33
2024/02/01 04:37:40;;;;;;;6.40;4.78;;;6.60;99.90;;;;;;5023367;28;20030;-37
2024/02/01 04:40:11;;;;;;;9.38;5.13;;;6.60;99.90;;;;;;5018343;28;20097;-33
2024/02/01 04:42:37;;;;;;;11.68;6.47;;;6.50;99.90;;;;;;5024798;28;20112;-33
2024/02/01 04:45:04;;;;;;;14.48;5.10;;;6.60;99.90;;;;;;5026174;28;20033;-33
2024/02/01 04:47:36;;;;;;;8.30;5.53;;;6.50;99.90;;;;;;5029414;28;20040;-35
2024/02/01 04:50:02;;;;;;;7.88;5.93;;;6.50;99.90;;;;;;5029292;28;20964;-35
2024/02/01 04:52:30;;;;;;;11.95;6.47;;;6.50;99.90;;;;;;5028137;28;20120;-39
2024/02/01 04:54:58;;;;;;;7.35;4.95;;;6.50;99.90;;;;;;5030115;28;20383;-38
2024/02/01 04:57:24;;;;;;;7.95;5.53;;;6.40;99.90;;;;;;5023821;28;20042;-39
2024/02/01 04:59:49;;;;;;;11.52;6.43;;;6.50;99.90;;;;;;5025788;28;20029;-41
2024/02/01 05:02:16;;;;;;;7.65;6.07;;;6.50;99.90;;;;;;5023580;28;20090;-40
2024/02/01 05:04:43;;;;;;;10.30;5.90;;;6.50;99.90;;;;;;5025852;28;20049;-39
2024/02/01 05:07:09;;;;;;;11.98;6.65;;;6.50;99.90;;;;;;5022453;28;20041;-40
2024/02/01 05:09:39;;;;;;;13.07;7.35;;;6.60;99.90;;;;;;5027856;28;20391;-38
2024/02/01 05:12:06;;;;;;;9.90;6.20;;;6.60;99.90;;;;;;5023343;28;20029;-38
2024/02/01 05:14:32;;;;;;;8.60;5.28;;;6.60;99.90;;;;;;5031086;28;20038;-40
2024/02/01 05:16:58;;;;;;;11.15;6.35;;;6.60;99.90;;;;;;5027715;28;20465;-38
2024/02/01 05:19:25;;;;;;;8.60;5.38;;;6.60;99.90;;;;;;5022426;28;20029;-38
2024/02/01 05:21:52;;;;;;;11.48;7.28;;;6.50;99.90;;;;;;5022663;28;20609;-40
2024/02/01 05:24:18;;;;;;;9.67;5.77;;;6.50;99.90;;;;;;5024735;28;20485;-40
2024/02/01 05:26:46;;;;;;;15.02;7.22;;;6.50;99.90;;;;;;5021990;28;20026;-38
2024/02/01 05:29:12;;;;;;;7.23;4.70;;;6.50;99.90;;;;;;5020923;28;20060;-40
2024/02/01 05:31:38;;;;;;;17.38;6.90;;;6.50;99.90;;;;;;5013756;28;20033;-41
2024/02/01 05:34:05;;;;;;;10.23;6.07;;;6.50;99.90;;;;;;4998416;28;20400;-40
2024/02/01 05:36:32;;;;;;;13.73;7.05;;;6.50;99.90;;;;;;5005242;28;20038;-38
2024/02/01 05:38:58;;;;;;;7.57;3.67;;;6.50;99.90;;;;;;5005603;28;20498;-40
2024/02/01 05:41:24;;;;;;;9.55;6.10;;;6.50;99.90;;;;;;5005624;28;20021;-41
2024/02/01 05:43:50;;;;;;;10.48;5.85;;;6.50;99.90;;;;;;5003570;28;20029;-41
2024/02/01 05:46:15;;;;;;;10.63;6.60;;;6.50;99.90;;;;;;5008773;28;20271;-39
2024/02/01 05:48:43;;;;;;;17.10;7.60;;;6.40;99.90;;;;;;5006813;28;20044;-39
2024/02/01 05:51:08;;;;;;;13.18;6.85;;;6.40;99.90;;;;;;4999351;28;20523;-40
2024/02/01 05:53:34;;;;;;;12.38;6.95;;;6.40;99.90;;;;;;5002577;28;20032;-39
2024/02/01 05:55:59;;;;;;;13.80;7.32;;;6.50;99.90;;;;;;4999108;28;20037;-38
2024/02/01 05:58:28;;;;;;;10.50;6.80;;;6.50;99.90;;;;;;5005877;28;20427;-40
2024/02/01 06:00:54;;;;;;;;;;;6.50;99.90;;;;;;5004653;28;20037;-33
2024/02/01 06:03:19;;;;;;;10.32;6.18;;;6.40;99.90;;;;;;5025536;28;19916;-39
2024/02/01 06:05:48;;;;;;;8.23;5.25;;;6.50;99.90;;;;;;5019116;28;20029;-38
2024/02/01 06:08:15;;;;;;;11.15;6.68;;;6.50;99.90;;;;;;5022436;28;20022;-40
2024/02/01 06:10:41;;;;;;;12.93;6.50;;;6.50;99.90;;;;;;5023928;28;20026;-37
2024/02/01 06:13:06;;;;;;;10.60;6.00;;;6.50;99.90;;;;;;5019029;28;20036;-39
2024/02/01 06:15:34;;;;;;;13.07;6.43;;;6.50;99.90;;;;;;5024743;28;20042;-40
2024/02/01 06:17:59;;;;;;;11.93;7.03;;;6.50;99.90;;;;;;5021034;28;20419;-40
2024/02/01 06:20:25;;;;;;;12.80;7.30;;;6.50;99.90;;;;;;5029433;28;20087;-40
2024/02/01 06:22:51;;;;;;;13.70;6.97;;;6.60;99.90;;;;;;5024847;28;20632;-39
2024/02/01 06:25:17;;;;;;;11.65;7.10;;;6.60;99.90;;;;;;5011246;28;20048;-40
2024/02/01 06:27:42;;;;;;;10.93;7.22;;;6.70;99.90;;;;;;5025799;28;20039;-38
2024/02/01 06:30:12;;;;;;;16.42;6.97;;;6.70;99.90;;;;;;5020992;28;20034;-37
2024/02/01 06:32:39;;;;;;;12.07;6.40;;;6.70;99.90;;;;;;4982682;28;20066;-40
2024/02/01 06:35:12;;;;;;;10.80;5.60;;;6.70;99.90;;;;;;5006764;28;20463;-38
2024/02/01 06:37:40;;;;;;;11.30;6.50;;;6.70;99.90;;;;;;5005836;28;20410;-40
2024/02/01 06:43:11;;;;;;;11.98;7.85;;;6.70;99.90;;;;;;5009122;28;20072;-38
2024/02/01 06:46:01;;;;;;;9.98;6.40;;;6.70;99.90;;;;;;4989677;28;20025;-41
2024/02/01 06:48:40;;;;;;;11.80;6.07;;;6.60;99.90;;;;;;5012184;28;20103;-39
2024/02/01 06:51:33;;;;;;;16.58;6.47;;;6.60;99.90;;;;;;5008711;28;20503;-40
2024/02/01 06:54:05;;;;;;;12.32;6.65;;;6.60;99.90;;;;;;5001050;28;20072;-39
2024/02/01 06:56:52;;;;;;;12.70;6.88;;;6.50;99.90;;;;;;5004524;28;20107;-39
2024/02/01 06:59:31;;;;;;;11.43;6.95;;;6.50;99.90;;;;;;5005030;28;20550;-40
2024/02/01 07:02:11;;;;;;;8.98;5.30;;;6.50;99.90;;;;;;5007059;28;20026;-36
2024/02/01 07:04:50;;;;;;;8.27;5.53;;;6.50;99.90;;;;;;5016497;28;20033;-38
2024/02/01 07:07:26;;;;;;;12.48;6.88;;;6.50;99.90;;;;;;5024502;28;20030;-39
2024/02/01 07:09:58;;;;;;;10.88;4.97;;;6.50;99.90;;;;;;5019315;28;20094;-39
2024/02/01 07:13:21;;;;;;;9.85;4.57;;;6.50;99.90;;;;;;5014742;28;20155;-39
2024/02/01 07:17:58;;;;;;;11.70;6.45;;;6.50;99.90;;;;;;5020664;28;20036;-39
2024/02/01 07:20:46;;;;;;;11.80;7.00;;;6.50;99.90;;;;;;5018101;28;20026;-39
2024/02/01 07:58:40;;;;;;;13.00;6.25;;;6.40;99.90;;;;;;5013535;28;20083;-38
2024/02/01 08:01:17;;;;;;;12.55;6.93;;;6.40;99.90;;;;;;5016375;28;20488;-39
2024/02/01 08:03:56;;;;;;;11.98;8.00;;;6.30;99.90;;;;;;5019249;28;20033;-40
2024/02/01 08:09:12;;;;;;;14.00;8.68;;;6.30;99.90;;;;;;5020014;28;20040;-40
2024/02/01 08:11:41;;;;;;;13.55;7.70;;;6.30;99.90;;;;;;5015072;28;20044;-36
2024/02/01 08:14:11;;;;;;;11.52;7.95;;;6.30;99.90;;;;;;5021175;28;20025;-40
2024/02/01 08:16:39;;;;;;;14.00;8.05;;;6.30;99.90;;;;;;5028128;28;20586;-40
2024/02/01 08:19:08;;;;;;;17.17;9.40;;;6.40;99.90;;;;;;5020260;28;20060;-40
2024/02/01 08:21:42;;;;;;;12.95;7.55;;;6.40;99.90;;;;;;5028237;28;20034;-41
2024/02/01 08:24:09;;;;;;;15.23;8.73;;;6.40;99.90;;;;;;5021315;28;20041;-41
2024/02/01 08:26:39;;;;;;;13.93;8.27;;;6.40;99.90;;;;;;5023051;28;20025;-41
2024/02/01 08:29:09;;;;;;;16.00;8.45;;;6.40;99.90;;;;;;5023533;28;20383;-41
2024/02/01 08:31:36;;;;;;;16.70;9.50;;;6.30;99.90;;;;;;5013274;28;20583;-37
2024/02/01 08:34:05;;;;;;;15.00;8.25;;;6.30;99.90;;;;;;5009252;28;20074;-40
2024/02/01 08:36:31;;;;;;;;;;;6.30;99.90;;;;;;5008690;28;20026;-41
2024/02/01 08:38:59;;;;;;;14.70;8.38;;;6.30;99.90;;;;;;5006761;28;19920;-39
2024/02/01 08:41:25;;;;;;;15.70;8.83;;;6.30;99.90;;;;;;4985890;28;20121;-40
2024/02/01 08:43:51;;;;;;;17.08;8.88;;;6.30;99.90;;;;;;5011936;28;20472;-37
2024/02/01 08:46:22;;;;;;;16.00;9.40;;;6.40;99.90;;;;;;5003461;28;20033;-40
2024/02/01 08:48:49;;;;;;;15.40;8.43;;;6.40;99.90;;;;;;5004313;28;20034;-40
2024/02/01 08:51:17;;;;;;;16.83;9.50;;;6.40;99.90;;;;;;5007871;28;20034;-42
2024/02/01 08:53:43;;;;;;;17.52;9.65;;;6.50;99.90;;;;;;5008289;28;20032;-40
2024/02/01 08:56:08;;;;;;;16.90;9.27;;;6.50;99.90;;;;;;5008199;28;20046;-41
2024/02/01 08:58:38;;;;;;;15.73;8.75;;;6.50;99.90;;;;;;4999906;28;20034;-41
2024/02/01 09:01:04;;;;;;;13.70;7.28;;;6.50;99.90;;;;;;5009334;28;20132;-43
2024/02/01 09:03:32;;;;;;;16.88;8.85;;;6.50;99.90;;;;;;5004983;28;20033;-36
2024/02/01 09:06:08;;;;;;;14.27;8.07;;;6.50;99.90;;;;;;5004677;28;20160;-36
2024/02/01 09:08:39;;;;;;;18.75;9.43;;;6.50;99.90;;;;;;5005271;28;20045;-36
2024/02/01 09:11:11;;;;;;;11.98;7.78;;;6.50;99.90;;;;;;5008872;28;20495;-40
2024/02/01 09:13:44;;;;;;;10.73;7.75;;;6.50;99.90;;;;;;5005337;28;20026;-41
2024/02/01 09:16:11;;;;;;;9.95;7.20;;;6.50;99.90;;;;;;5002452;28;20043;-41
2024/02/01 09:18:37;;;;;;;15.63;7.95;;;6.50;99.90;;;;;;5000702;28;20034;-38
2024/02/01 09:21:03;;;;;;;13.38;8.98;;;6.50;99.90;;;;;;5006840;28;20549;-40
2024/02/01 09:23:29;;;;;;;11.63;7.38;;;6.50;99.90;;;;;;5010389;28;20052;-43
2024/02/01 09:25:54;;;;;;;13.27;8.95;;;6.50;99.90;;;;;;5015961;28;20018;-36
2024/02/01 09:28:20;;;;;;;10.10;6.90;;;6.50;99.90;;;;;;5000839;28;20503;-38
2024/02/01 09:30:47;;;;;;;12.65;7.82;;;6.60;99.90;;;;;;5006337;28;20047;-39
2024/02/01 09:33:13;;;;;;;19.48;9.45;;;6.60;99.90;;;;;;5022165;28;20037;-38
2024/02/01 09:35:39;;;;;;;18.42;10.63;;;6.60;99.90;;;;;;5031316;28;20523;-40
2024/02/01 09:38:04;;;;;;;13.95;7.57;;;6.60;99.90;;;;;;5025013;28;20034;-41
2024/02/01 09:40:30;;;;;;;16.83;9.40;;;6.60;99.90;;;;;;5020537;28;20471;-40
2024/02/01 09:42:56;;;;;;;19.98;10.90;;;6.60;99.90;;;;;;5025680;28;20053;-34
2024/02/01 09:45:28;;;;;;;17.42;10.48;;;6.60;99.90;;;;;;5020486;28;20032;-33
2024/02/01 09:47:55;;;;;;;18.73;10.48;;;6.70;99.90;;;;;;5020516;28;20530;-34
2024/02/01 09:50:21;;;;;;;19.08;11.35;;;6.70;99.90;;;;;;5022498;28;20041;-31
2024/02/01 09:52:49;;;;;;;14.07;9.45;;;6.70;99.90;;;;;;5023325;28;20034;-33
2024/02/01 09:55:19;;;;;;;12.20;8.63;;;6.70;99.90;;;;;;5010713;28;20379;-33
2024/02/01 09:57:54;;;;;;;18.13;10.15;;;6.70;99.90;;;;;;5031191;28;20149;-34
2024/02/01 10:00:23;;;;;;;17.67;10.45;;;6.70;99.90;;;;;;5022644;28;20386;-33
2024/02/01 10:02:54;;;;;;;13.30;8.75;;;6.70;99.90;;;;;;5022648;28;20120;-32
2024/02/01 10:05:22;;;;;;;15.13;8.23;;;6.70;99.90;;;;;;5031663;28;20037;-33
2024/02/01 10:07:48;;;;;;;;;;;6.70;99.90;;;;;;5024807;28;20120;-32
2024/02/01 10:10:14;;;;;;;18.33;9.27;;;6.70;99.90;;;;;;5027992;28;20007;-32
2024/02/01 10:12:41;;;;;;;14.40;9.20;;;6.70;99.90;;;;;;5023294;28;20037;-35
2024/02/01 10:15:11;;;;;;;14.10;8.63;;;6.70;99.90;;;;;;5027438;28;20240;-32
2024/02/01 10:17:47;;;;;;;12.10;7.90;;;6.80;99.90;;;;;;5024243;28;20500;-33
2024/02/01 10:20:36;;;;;;;14.00;9.02;;;6.80;99.90;;;;;;5028213;28;20447;-33
2024/02/01 10:23:02;;;;;;;15.48;8.07;;;6.80;99.90;;;;;;5023245;28;20025;-35
2024/02/01 10:25:33;;;;;;;17.77;9.50;;;6.90;99.90;;;;;;5030617;28;20124;-31
2024/02/01 10:28:07;;;;;;;18.92;9.65;;;6.90;99.90;;;;;;5025805;28;20151;-33
2024/02/01 10:30:39;;;;;;;16.30;10.50;;;6.90;99.90;;;;;;5029012;28;20041;-33
2024/02/01 10:33:05;;;;;;;12.20;7.55;;;6.90;99.90;;;;;;5031001;28;20055;-33
2024/02/01 10:35:32;;;;;;;9.75;6.75;;;7.00;99.90;;;;;;5030178;28;20505;-34
2024/02/01 10:38:00;;;;;;;10.95;6.30;;;6.90;99.90;;;;;;5024563;28;20033;-33
2024/02/01 10:40:39;;;;;;;18.45;7.63;;;6.90;99.90;;;;;;5005136;28;20025;-32
2024/02/01 10:43:05;;;;;;;20.92;9.55;;;7.00;99.90;;;;;;5024335;28;20036;-41
2024/02/01 10:45:35;;;;;;;12.88;7.72;;;7.00;99.90;;;;;;5024512;28;20026;-38
2024/02/01 10:48:09;;;;;;;12.57;8.27;;;6.90;99.90;;;;;;5027868;28;20022;-38
2024/02/01 10:50:39;;;;;;;19.23;10.43;;;6.90;99.90;;;;;;5026984;28;20177;-41
2024/02/01 10:53:11;;;;;;;20.00;11.43;;;6.90;99.90;;;;;;5022307;28;20479;-40
2024/02/01 10:55:40;;;;;;;18.52;10.63;;;6.90;99.90;;;;;;5021454;28;20029;-40
2024/02/01 10:58:12;;;;;;;16.67;8.85;;;6.90;99.90;;;;;;5022037;28;20028;-39
2024/02/01 11:00:42;;;;;;;16.73;8.77;;;6.90;99.90;;;;;;5018176;28;20029;-39
2024/02/01 11:03:11;;;;;;;16.15;8.70;;;6.90;99.90;;;;;;5006173;28;20026;-40
2024/02/01 11:05:37;;;;;;;17.73;10.85;;;7.00;99.90;;;;;;5010828;28;20050;-41
2024/02/01 11:08:03;;;;;;;13.23;7.50;;;7.00;99.90;;;;;;5011806;28;20622;-40
2024/02/01 11:10:29;;;;;;;12.65;7.97;;;7.00;99.90;;;;;;5011360;28;20166;-41
2024/02/01 11:12:55;;;;;;;7.57;5.63;;;7.00;99.90;;;;;;5005541;28;20030;-35
2024/02/01 11:15:29;;;;;;;10.70;7.10;;;7.00;99.90;;;;;;5014646;28;20033;-40
2024/02/01 11:17:59;;;;;;;10.57;6.57;;;7.00;99.90;;;;;;5005666;28;20535;-36
2024/02/01 11:20:30;;;;;;;12.77;7.32;;;7.00;99.90;;;;;;5013410;28;20030;-40
2024/02/01 11:22:57;;;;;;;12.70;8.35;;;7.00;99.90;;;;;;5003950;28;20602;-39
2024/02/01 11:25:27;;;;;;;14.57;8.70;;;7.00;99.90;;;;;;5005843;28;20088;-40
2024/02/01 11:27:53;;;;;;;11.00;5.85;;;7.00;99.90;;;;;;5005324;28;20042;-39
2024/02/01 11:30:28;;;;;;;9.10;6.22;;;7.00;99.90;;;;;;5012764;28;20041;-39
2024/02/01 11:32:55;;;;;;;9.85;6.00;;;7.10;99.90;;;;;;5023968;28;20038;-40
2024/02/01 11:35:22;;;;;;;7.88;5.32;;;7.10;99.90;;;;;;5025878;28;20044;-38
2024/02/01 11:38:01;;;;;;;7.97;6.35;;;7.10;99.90;;;;;;5028028;28;20534;-38
2024/02/01 11:40:29;;;;;;;12.05;6.32;;;7.10;99.90;;;;;;5025412;28;20022;-37
2024/02/01 11:42:59;;;;;;;10.05;5.38;;;7.10;99.90;;;;;;5026867;28;20479;-36
2024/02/01 11:45:27;;;;;;;13.68;6.90;;;7.10;99.90;;;;;;5022722;28;20029;-41
2024/02/01 11:47:53;;;;;;;8.80;6.18;;;7.10;99.90;;;;;;5025173;28;20036;-38
2024/02/01 11:50:23;;;;;;;8.65;5.78;;;7.10;99.90;;;;;;5025988;28;20056;-39
2024/02/01 11:53:06;;;;;;;8.65;5.40;;;7.10;99.90;;;;;;5026429;28;20036;-34
2024/02/01 11:55:33;;;;;;;8.80;5.85;;;7.20;99.90;;;;;;5027379;28;20029;-35
2024/02/01 11:58:00;;;;;;;14.38;6.78;;;7.20;99.90;;;;;;5024525;28;20049;-33
2024/02/01 12:00:26;;;;;;;10.77;6.50;;;7.20;99.90;;;;;;5027140;28;20061;-33
2024/02/01 12:02:52;;;;;;;9.45;5.80;;;7.20;99.90;;;;;;5015263;28;20025;-36
2024/02/01 12:05:23;;;;;;;6.07;4.53;;;7.20;99.90;;;;;;5021779;28;20181;-35
2024/02/01 12:07:49;;;;;;;6.18;5.25;;;7.20;99.90;;;;;;5025765;28;20041;-32
2024/02/01 12:10:16;;;;;;;10.40;6.65;;;7.30;99.90;;;;;;5023558;28;20644;-34
2024/02/01 12:12:44;;;;;;;9.25;5.85;;;7.40;99.90;;;;;;5026958;28;20155;-32
2024/02/01 12:15:12;;;;;;;10.30;6.50;;;7.40;99.90;;;;;;5017378;28;20033;-32
2024/02/01 12:17:45;;;;;;;8.40;5.18;;;7.40;99.90;;;;;;5022744;28;20526;-32
2024/02/01 12:20:28;;;;;;;8.80;5.07;;;7.50;99.90;;;;;;5029576;28;20626;-34
2024/02/01 12:22:57;;;;;;;9.65;5.85;;;7.50;99.90;;;;;;5024847;28;20033;-35
2024/02/01 12:25:23;;;;;;;5.35;3.55;;;7.60;99.90;;;;;;5023564;28;20083;-34
2024/02/01 12:27:50;;;;;;;8.70;5.60;;;7.60;99.90;;;;;;5023073;28;20034;-32
2024/02/01 12:30:16;;;;;;;7.43;5.13;;;7.60;99.90;;;;;;5024068;28;20030;-32
2024/02/01 12:32:43;;;;;;;11.55;6.97;;;7.60;99.90;;;;;;5021067;28;20096;-33
2024/02/01 12:35:14;;;;;;;8.60;5.57;;;7.60;99.90;;;;;;5027475;28;20041;-32
2024/02/01 12:37:43;;;;;;;11.88;6.53;;;7.60;99.90;;;;;;5009334;28;20033;-36
2024/02/01 12:40:13;;;;;;;6.13;4.53;;;7.60;99.90;;;;;;5024896;28;20033;-34
2024/02/01 12:42:41;;;;;;;7.40;5.53;;;7.60;99.90;;;;;;5018073;28;20033;-33
2024/02/01 12:45:08;;;;;;;9.45;5.32;;;7.60;99.90;;;;;;5023013;28;20036;-32
2024/02/01 12:47:37;;;;;;;7.32;4.95;;;7.70;99.90;;;;;;5025047;28;20029;-34
2024/02/01 12:50:07;;;;;;;9.15;5.00;;;7.70;99.90;;;;;;5019535;28;20037;-31
2024/02/01 12:52:33;;;;;;;7.78;4.93;;;7.70;99.90;;;;;;5024762;28;20037;-33
2024/02/01 12:55:00;;;;;;;11.43;6.38;;;7.70;99.90;;;;;;5027719;28;20025;-31
2024/02/01 12:57:26;;;;;;;12.77;5.75;;;7.70;99.90;;;;;;5007636;28;20029;-32
2024/02/01 12:59:53;;;;;;;13.27;6.35;;;7.70;99.90;;;;;;5026571;28;20546;-32
2024/02/01 13:02:19;;;;;;;9.07;4.60;;;7.70;99.90;;;;;;5006227;28;20435;-38
2024/02/01 13:04:46;;;;;;;8.70;5.25;;;7.70;99.90;;;;;;5006018;28;20518;-38
2024/02/01 13:07:12;;;;;;;10.93;6.47;;;7.70;99.90;;;;;;5007134;28;20072;-39
2024/02/01 13:09:41;;;;;;;9.18;5.45;;;7.70;99.90;;;;;;5008432;28;20029;-38
2024/02/01 13:12:19;;;;;;;6.18;4.38;;;7.70;99.90;;;;;;5007319;28;20033;-33
2024/02/01 13:14:57;;;;;;;7.65;6.03;;;7.70;99.90;;;;;;5002612;28;20052;-31
2024/02/01 13:17:35;;;;;;;;;;;7.70;99.90;;;;;;5009285;28;20049;-35
2024/02/01 13:20:03;;;;;;;9.77;5.35;;;7.70;99.90;;;;;;5008084;28;19909;-32
2024/02/01 13:22:29;;;;;;;9.27;5.15;;;7.70;99.90;;;;;;5007365;28;20060;-36
2024/02/01 13:24:55;;;;;;;9.30;5.28;;;7.70;99.90;;;;;;5008543;28;20029;-36
2024/02/01 13:27:20;;;;;;;9.35;5.85;;;7.70;99.90;;;;;;5003899;28;20037;-32
2024/02/01 13:29:46;;;;;;;8.98;5.22;;;7.70;99.90;;;;;;5007933;28;20041;-33
2024/02/01 13:32:14;;;;;;;5.55;4.03;;;7.70;99.90;;;;;;5009119;28;20049;-35
2024/02/01 13:34:40;;;;;;;9.17;6.30;;;7.60;99.90;;;;;;5013474;28;20042;-37
2024/02/01 13:37:10;;;;;;;6.78;5.07;;;7.60;99.90;;;;;;5011094;28;20095;-32
2024/02/01 13:39:43;;;;;;;7.05;4.75;;;7.70;99.90;;;;;;4994756;28;20024;-32